Denmark, SC

5:26 PM EDT on July 06, 2015 (GMT -0400)
Edisto Electric HQ | | Change Station
CLOSE
Current Station
Personal Weather Station
Location: Bamberg, SC
Elevation: 151 ft
Nearby Weather Stations

Elev 151 ft 33.29 °N, 81.04 °W | Updated 6 seconds ago

Partly Cloudy
Partly Cloudy
87.9 °F
Feels Like 93 °F
N
4.9
Wind Variable Wind from WSW
Gusts 6.0 mph

Today
High -- | Low -- °F
--% Chance of Precip.
Yesterday
High -- | Low -- °F
Precip. -- in
6:20 AM 8:37 PM
Waning Gibbous, 72% visible
Pressure 30.08 in
Visibility 10.0 miles
Clouds Few 3800 ft
Heat Index 93 °F
Dew Point 70 °F
Humidity 56%
Rainfall 0.00 in
Snow Depth Not available.
UV 6 out of 12
Pollen 3.90 out of 12
Air Quality Not available.
Flu Activity Not available.
METAR KOGB 062053Z AUTO 23006KT 10SM FEW038 30/21 A3009 RMK AO2 SLP185 T03000206 58016

More Conditions Fewer Conditions

Pressure 30.08 in
Visibility 10.0 miles
Clouds Few 3800 ft
Heat Index 93 °F
Dew Point 70 °F
Humidity 56%
Rainfall 0.00 in
Snow Depth Not available.
UV 6 out of 12
Pollen 3.90 out of 12
Air Quality Not available.
Flu Activity Not available.
METAR KOGB 062053Z AUTO 23006KT 10SM FEW038 30/21 A3009 RMK AO2 SLP185 T03000206 58016

More Conditions Fewer Conditions

10-Day Weather Forecast

×

Almanac

Astronomy

Jul. 06, 2015 Rise Set
Actual Time
Civil Twilight
Nautical Twilight
Astronomical Twilight
Moon
Length of Visible Light
Length of Day
Tomorrow will be .
, % of the Moon is Illuminated

Today's Extremes

State Highs State Lows

Community

WunderPhotos

Upload Photos

1,835,653 photos uploaded!

WunderBlogs® & News

Nearby

Air Quality

  Air Quality AQ Index Pollutant
Not available.

Snow Depth

Station Depth Elevation

Earthquake Activity

City Distance Mag. Time & Date
Minimum magnitude displayed is 2.5.

Coastal Water Temperatures

Place Temperature

Stations

Nearby Weather Stations

Station Location Temp. Windchill Dew Point Humidity Wind Precip. Elev Updated Type